Time;durP1;ratioP1;P1;durP2;ratioP2;P2;SDS_P1;SDS_P2;PMS_P1;PMS_P2;Temp;Humidity;BMP_temperature;BMP_pressure;BME280_temperature;BME280_humidity;BME280_pressure;Samples;Min_cycle;Max_cycle;Signal;HPM_P1;HPM_P2
2024/01/06 00:00:50;;;;;;;689.42;569.60;;;;;;;;;;5046170;28;20961;-74
2024/01/06 00:03:22;;;;;;;683.92;570.20;;;;;;;;;;5041222;28;20521;-74
2024/01/06 00:05:50;;;;;;;683.53;550.07;;;;;;;;;;5039192;28;20565;-74
2024/01/06 00:08:17;;;;;;;680.05;570.72;;;;;;;;;;5040763;28;20516;-73
2024/01/06 00:10:46;;;;;;;683.77;577.87;;;;;;;;;;5050712;28;20516;-74
2024/01/06 00:13:14;;;;;;;682.38;560.33;;;;;;;;;;5040733;28;20439;-73
2024/01/06 00:15:44;;;;;;;683.40;564.97;;;;;;;;;;5042437;28;20497;-74
2024/01/06 00:18:11;;;;;;;676.55;572.72;;;;;;;;;;5049144;28;20426;-74
2024/01/06 00:20:38;;;;;;;678.92;547.03;;;;;;;;;;5048537;28;20938;-74
2024/01/06 00:23:06;;;;;;;689.60;475.95;;;;;;;;;;5041645;28;20433;-74
2024/01/06 00:25:33;;;;;;;697.17;490.93;;;;;;;;;;5046104;28;20816;-73
2024/01/06 00:28:03;;;;;;;692.47;495.85;;;;;;;;;;5042240;28;20908;-74
2024/01/06 00:30:30;;;;;;;700.65;510.83;;;;;;;;;;5034171;28;20441;-74
2024/01/06 00:32:58;;;;;;;702.63;493.75;;;;;;;;;;5049236;28;20465;-74
2024/01/06 00:35:27;;;;;;;706.35;499.95;;;;;;;;;;5044350;28;20459;-74
2024/01/06 00:37:55;;;;;;;702.72;545.63;;;;;;;;;;5038491;28;20514;-73
2024/01/06 00:40:22;;;;;;;708.45;517.47;;;;;;;;;;5042369;28;20907;-74
2024/01/06 00:42:49;;;;;;;713.45;510.50;;;;;;;;;;5041184;28;20424;-74
2024/01/06 00:45:17;;;;;;;722.17;516.53;;;;;;;;;;5040759;28;20436;-73
2024/01/06 00:47:48;;;;;;;710.05;539.38;;;;;;;;;;5043061;28;20460;-74
2024/01/06 00:50:19;;;;;;;717.35;515.80;;;;;;;;;;5043258;28;20430;-74
2024/01/06 00:52:46;;;;;;;714.80;538.22;;;;;;;;;;5039969;28;20436;-74
2024/01/06 00:55:13;;;;;;;716.50;544.33;;;;;;;;;;5047413;28;20913;-74
2024/01/06 00:57:40;;;;;;;713.05;503.13;;;;;;;;;;5052383;28;20925;-74
2024/01/06 01:00:08;;;;;;;716.60;469.00;;;;;;;;;;5050251;28;20516;-74
2024/01/06 01:02:35;;;;;;;714.35;489.95;;;;;;;;;;5044110;28;20460;-73
2024/01/06 01:05:09;;;;;;;713.65;436.00;;;;;;;;;;5036573;28;20449;-74
2024/01/06 01:07:37;;;;;;;723.05;478.58;;;;;;;;;;5034905;28;20434;-75
2024/01/06 01:10:05;;;;;;;720.15;539.28;;;;;;;;;;5038283;28;20421;-74
2024/01/06 01:12:32;;;;;;;719.28;529.47;;;;;;;;;;5043107;28;20439;-74
2024/01/06 01:15:00;;;;;;;727.72;535.13;;;;;;;;;;5041611;28;20428;-73
2024/01/06 01:17:27;;;;;;;721.97;541.53;;;;;;;;;;5041452;28;20451;-73
2024/01/06 01:19:54;;;;;;;714.80;534.40;;;;;;;;;;5039338;28;20428;-74
2024/01/06 01:22:21;;;;;;;722.88;524.90;;;;;;;;;;5038461;28;20431;-73
2024/01/06 01:24:49;;;;;;;720.05;525.47;;;;;;;;;;5043539;28;21172;-73
2024/01/06 01:27:16;;;;;;;730.10;534.42;;;;;;;;;;5047657;28;20795;-74
2024/01/06 01:29:43;;;;;;;716.70;511.40;;;;;;;;;;5052591;28;20513;-75
2024/01/06 01:32:10;;;;;;;721.67;503.58;;;;;;;;;;5045707;28;20503;-73
2024/01/06 01:34:38;;;;;;;730.40;514.77;;;;;;;;;;5045710;28;20492;-73
2024/01/06 01:37:05;;;;;;;714.42;503.35;;;;;;;;;;5037418;28;21129;-73
2024/01/06 01:39:32;;;;;;;715.30;539.97;;;;;;;;;;5044853;28;20468;-73
2024/01/06 01:41:59;;;;;;;715.25;510.50;;;;;;;;;;5051861;28;20433;-74
2024/01/06 01:44:27;;;;;;;714.03;508.80;;;;;;;;;;5042233;28;20435;-73
2024/01/06 01:46:57;;;;;;;718.85;506.35;;;;;;;;;;5044778;28;20856;-73
2024/01/06 01:49:27;;;;;;;720.33;529.95;;;;;;;;;;5045543;28;20433;-74
2024/01/06 01:51:58;;;;;;;722.63;536.20;;;;;;;;;;5053377;28;20491;-74
2024/01/06 01:54:25;;;;;;;729.80;564.20;;;;;;;;;;5039291;28;20439;-74
2024/01/06 01:56:52;;;;;;;731.55;579.75;;;;;;;;;;5039281;28;20441;-73
2024/01/06 01:59:23;;;;;;;726.50;559.47;;;;;;;;;;5049068;28;20954;-73
2024/01/06 02:01:50;;;;;;;726.90;567.65;;;;;;;;;;5040841;28;20439;-74
2024/01/06 02:04:17;;;;;;;735.47;531.75;;;;;;;;;;5050910;28;20436;-74
2024/01/06 02:06:44;;;;;;;744.97;529.10;;;;;;;;;;5048959;28;20488;-75
2024/01/06 02:09:12;;;;;;;746.78;522.17;;;;;;;;;;5047952;28;20426;-73
2024/01/06 02:11:39;;;;;;;750.25;552.47;;;;;;;;;;5050353;28;20479;-73
2024/01/06 02:14:06;;;;;;;746.85;558.47;;;;;;;;;;5041249;28;20448;-74
2024/01/06 02:16:33;;;;;;;737.63;549.22;;;;;;;;;;5045865;28;20422;-74
2024/01/06 02:19:00;;;;;;;742.53;511.13;;;;;;;;;;5045321;28;20481;-73
2024/01/06 02:21:28;;;;;;;740.42;525.65;;;;;;;;;;5043774;28;20431;-73
2024/01/06 02:23:56;;;;;;;727.63;477.65;;;;;;;;;;5047994;28;20780;-73
2024/01/06 02:26:23;;;;;;;736.03;502.92;;;;;;;;;;5041748;28;20437;-74
2024/01/06 02:28:50;;;;;;;736.80;481.85;;;;;;;;;;5042347;28;20971;-74
2024/01/06 02:31:23;;;;;;;735.53;523.28;;;;;;;;;;5044117;28;20921;-73
2024/01/06 02:33:51;;;;;;;740.72;506.17;;;;;;;;;;5041880;28;20430;-74
2024/01/06 02:36:18;;;;;;;740.42;514.38;;;;;;;;;;5049173;28;20437;-75
2024/01/06 02:38:45;;;;;;;738.38;512.20;;;;;;;;;;5048331;28;20427;-74
2024/01/06 02:41:12;;;;;;;736.38;479.70;;;;;;;;;;5053269;28;20520;-74
2024/01/06 02:43:40;;;;;;;733.63;508.58;;;;;;;;;;5044659;28;20427;-73
2024/01/06 02:46:07;;;;;;;740.58;544.28;;;;;;;;;;5044463;28;20980;-74
2024/01/06 02:48:34;;;;;;;742.20;540.20;;;;;;;;;;5036622;28;20461;-74
2024/01/06 02:51:05;;;;;;;742.53;533.67;;;;;;;;;;5040728;28;20512;-74
2024/01/06 02:53:32;;;;;;;739.50;529.90;;;;;;;;;;5040518;28;20521;-74
2024/01/06 02:56:00;;;;;;;744.72;523.05;;;;;;;;;;5044282;28;20463;-75
2024/01/06 02:58:27;;;;;;;745.30;519.37;;;;;;;;;;5042183;28;20434;-75
2024/01/06 03:00:54;;;;;;;745.58;533.83;;;;;;;;;;5049711;28;20430;-74
2024/01/06 03:03:21;;;;;;;742.45;539.17;;;;;;;;;;5039216;28;20514;-74
2024/01/06 03:05:56;;;;;;;746.50;537.15;;;;;;;;;;5039500;28;20638;-74
2024/01/06 03:08:23;;;;;;;745.22;520.53;;;;;;;;;;5039065;28;20818;-73
2024/01/06 03:10:54;;;;;;;742.63;537.80;;;;;;;;;;5041351;28;20490;-74
2024/01/06 03:13:24;;;;;;;748.67;556.28;;;;;;;;;;5036406;28;20451;-74
2024/01/06 03:15:51;;;;;;;751.60;561.03;;;;;;;;;;5043321;28;20443;-73
2024/01/06 03:18:18;;;;;;;755.42;554.50;;;;;;;;;;5030088;28;20986;-74
2024/01/06 03:20:45;;;;;;;750.60;528.33;;;;;;;;;;5036802;28;20525;-74
2024/01/06 03:23:20;;;;;;;755.58;541.40;;;;;;;;;;5038749;28;20440;-74
2024/01/06 03:25:50;;;;;;;751.10;545.20;;;;;;;;;;5032621;28;20454;-74
2024/01/06 03:28:17;;;;;;;744.53;550.47;;;;;;;;;;5041410;28;20787;-74
2024/01/06 03:30:47;;;;;;;754.92;533.85;;;;;;;;;;5045005;28;20502;-74
2024/01/06 03:33:14;;;;;;;755.67;545.80;;;;;;;;;;5036438;28;20571;-74
2024/01/06 03:35:42;;;;;;;759.47;537.33;;;;;;;;;;5038168;28;20491;-74
2024/01/06 03:38:12;;;;;;;758.67;552.30;;;;;;;;;;5043576;28;20445;-74
2024/01/06 03:40:39;;;;;;;759.67;574.60;;;;;;;;;;5033350;28;20491;-75
2024/01/06 03:43:09;;;;;;;767.17;576.40;;;;;;;;;;5038510;28;20529;-74
2024/01/06 03:45:36;;;;;;;766.00;554.07;;;;;;;;;;5045127;28;20423;-74
2024/01/06 03:48:03;;;;;;;761.08;562.67;;;;;;;;;;5037311;28;20433;-74
2024/01/06 03:50:30;;;;;;;761.08;561.65;;;;;;;;;;5031231;28;20439;-74
2024/01/06 03:52:57;;;;;;;768.90;565.27;;;;;;;;;;5043257;28;20501;-74
2024/01/06 03:55:25;;;;;;;768.95;562.40;;;;;;;;;;5041621;28;20494;-74
2024/01/06 03:57:52;;;;;;;764.70;555.75;;;;;;;;;;5035323;28;20432;-73
2024/01/06 04:00:19;;;;;;;767.90;574.35;;;;;;;;;;5034564;28;20435;-73
2024/01/06 04:02:46;;;;;;;763.90;572.83;;;;;;;;;;5040791;28;20425;-73
2024/01/06 04:05:17;;;;;;;765.83;558.30;;;;;;;;;;5046015;28;20426;-73
2024/01/06 04:07:47;;;;;;;769.75;552.70;;;;;;;;;;5040572;28;20949;-73
2024/01/06 04:10:14;;;;;;;756.88;552.15;;;;;;;;;;5033486;28;21185;-74
2024/01/06 04:12:41;;;;;;;758.85;546.42;;;;;;;;;;5046696;28;20423;-74
2024/01/06 04:15:08;;;;;;;759.85;547.65;;;;;;;;;;5046039;28;20425;-74
2024/01/06 04:17:36;;;;;;;762.95;547.58;;;;;;;;;;5041830;28;20518;-74
2024/01/06 04:20:04;;;;;;;766.58;540.22;;;;;;;;;;5040945;28;20432;-74
2024/01/06 04:22:33;;;;;;;765.85;551.72;;;;;;;;;;5044392;28;20483;-73
2024/01/06 04:25:00;;;;;;;766.00;575.45;;;;;;;;;;5039487;28;20460;-74
2024/01/06 04:27:28;;;;;;;770.78;555.55;;;;;;;;;;5038154;28;20430;-74
2024/01/06 04:29:55;;;;;;;763.53;559.77;;;;;;;;;;5040366;28;20429;-75
2024/01/06 04:32:22;;;;;;;764.88;562.67;;;;;;;;;;5047318;28;20429;-74
2024/01/06 04:34:49;;;;;;;763.35;553.88;;;;;;;;;;5039857;28;20427;-75
2024/01/06 04:37:17;;;;;;;764.25;555.15;;;;;;;;;;5045076;28;20451;-75
2024/01/06 04:39:44;;;;;;;764.25;561.53;;;;;;;;;;5046476;28;20892;-75
2024/01/06 04:42:11;;;;;;;768.38;570.65;;;;;;;;;;5033366;28;20429;-74
2024/01/06 04:44:41;;;;;;;761.15;573.95;;;;;;;;;;5039904;28;20434;-74
2024/01/06 04:47:08;;;;;;;763.05;551.05;;;;;;;;;;5040476;28;20435;-74
2024/01/06 04:49:36;;;;;;;766.17;581.42;;;;;;;;;;5038234;28;20431;-74
2024/01/06 04:52:03;;;;;;;760.58;574.33;;;;;;;;;;5041955;28;20425;-74
2024/01/06 04:54:31;;;;;;;766.78;579.97;;;;;;;;;;5041222;28;20924;-75
2024/01/06 04:56:59;;;;;;;762.47;560.47;;;;;;;;;;5037865;28;20523;-74
2024/01/06 04:59:29;;;;;;;762.92;548.65;;;;;;;;;;5043569;28;20431;-74
2024/01/06 05:01:57;;;;;;;761.15;593.38;;;;;;;;;;5036988;28;20995;-75
2024/01/06 05:04:30;;;;;;;760.63;552.53;;;;;;;;;;5043268;28;20521;-74
2024/01/06 05:06:57;;;;;;;758.60;561.33;;;;;;;;;;5047979;28;20477;-74
2024/01/06 05:09:28;;;;;;;759.63;543.53;;;;;;;;;;5038965;28;20435;-75
2024/01/06 05:11:55;;;;;;;756.15;557.38;;;;;;;;;;5043515;28;20440;-74
2024/01/06 05:14:25;;;;;;;760.10;571.75;;;;;;;;;;5036007;28;20462;-75
2024/01/06 05:16:57;;;;;;;756.85;568.15;;;;;;;;;;5048339;28;20478;-74
2024/01/06 05:19:25;;;;;;;760.53;565.45;;;;;;;;;;5038830;28;20447;-74
2024/01/06 05:21:53;;;;;;;755.45;539.03;;;;;;;;;;5043331;28;20433;-74
2024/01/06 05:24:20;;;;;;;754.28;546.90;;;;;;;;;;5038245;28;20423;-73
2024/01/06 05:26:47;;;;;;;749.70;546.05;;;;;;;;;;5042987;28;20833;-73
2024/01/06 05:29:15;;;;;;;758.78;551.40;;;;;;;;;;5043791;28;20775;-73
2024/01/06 05:31:42;;;;;;;763.42;566.05;;;;;;;;;;5046012;28;20460;-73
2024/01/06 05:34:09;;;;;;;758.87;543.37;;;;;;;;;;5044836;28;20619;-73
2024/01/06 05:36:37;;;;;;;761.70;519.10;;;;;;;;;;5042306;28;20489;-73
2024/01/06 05:39:04;;;;;;;762.33;538.28;;;;;;;;;;5041340;28;20437;-74
2024/01/06 05:41:37;;;;;;;755.53;552.95;;;;;;;;;;5042644;28;20500;-73
2024/01/06 05:44:05;;;;;;;751.33;552.53;;;;;;;;;;5040438;28;20446;-73
2024/01/06 05:46:35;;;;;;;763.57;532.00;;;;;;;;;;5038137;28;20430;-74
2024/01/06 05:49:02;;;;;;;759.53;530.55;;;;;;;;;;5037334;28;20437;-73
2024/01/06 05:51:29;;;;;;;753.22;527.72;;;;;;;;;;5039140;28;20429;-73
2024/01/06 05:53:57;;;;;;;754.42;537.15;;;;;;;;;;5036085;28;20431;-73
2024/01/06 05:56:27;;;;;;;749.90;539.22;;;;;;;;;;5032212;28;20460;-73
2024/01/06 05:58:54;;;;;;;757.40;524.15;;;;;;;;;;5040078;28;20789;-73
2024/01/06 06:01:22;;;;;;;758.58;512.95;;;;;;;;;;5043936;28;20510;-73
2024/01/06 06:03:50;;;;;;;756.85;565.08;;;;;;;;;;5038311;28;20786;-73
2024/01/06 06:06:18;;;;;;;764.53;602.47;;;;;;;;;;5040176;28;20434;-73
2024/01/06 06:08:48;;;;;;;763.63;619.10;;;;;;;;;;5046956;28;20439;-73
2024/01/06 06:11:16;;;;;;;765.00;617.00;;;;;;;;;;5033376;28;20847;-73
2024/01/06 06:13:44;;;;;;;760.72;615.83;;;;;;;;;;5041488;28;20934;-73
2024/01/06 06:16:14;;;;;;;766.30;613.42;;;;;;;;;;5036121;28;20458;-73
2024/01/06 06:18:41;;;;;;;758.50;632.33;;;;;;;;;;5041312;28;20488;-73
2024/01/06 06:21:11;;;;;;;758.50;619.80;;;;;;;;;;5038222;28;20472;-73
2024/01/06 06:23:38;;;;;;;763.70;603.55;;;;;;;;;;5047239;28;20429;-73
2024/01/06 06:26:06;;;;;;;760.58;606.45;;;;;;;;;;5040734;28;20548;-73
2024/01/06 06:28:34;;;;;;;756.25;618.50;;;;;;;;;;5029713;28;20435;-73
2024/01/06 06:31:04;;;;;;;763.65;617.50;;;;;;;;;;5034083;28;21014;-74
2024/01/06 06:33:33;;;;;;;755.70;606.08;;;;;;;;;;5037274;28;20443;-73
2024/01/06 06:36:01;;;;;;;762.08;611.28;;;;;;;;;;5037149;28;20424;-74
2024/01/06 06:38:29;;;;;;;760.83;612.80;;;;;;;;;;5040516;28;20477;-73
2024/01/06 06:40:59;;;;;;;756.22;626.65;;;;;;;;;;5041856;28;20466;-72
2024/01/06 06:43:29;;;;;;;756.83;616.47;;;;;;;;;;5043869;28;20438;-72
2024/01/06 06:45:56;;;;;;;755.23;605.77;;;;;;;;;;5036383;28;20920;-72
2024/01/06 06:48:23;;;;;;;754.97;607.70;;;;;;;;;;5034178;28;20486;-72
2024/01/06 06:50:51;;;;;;;757.97;603.13;;;;;;;;;;5046149;28;20422;-72
2024/01/06 06:53:18;;;;;;;761.80;606.05;;;;;;;;;;5035431;28;20529;-72
2024/01/06 06:55:45;;;;;;;753.83;614.33;;;;;;;;;;5048456;28;20458;-71
2024/01/06 06:58:15;;;;;;;761.95;597.45;;;;;;;;;;5034528;28;20926;-71
2024/01/06 07:00:42;;;;;;;748.90;599.95;;;;;;;;;;5038602;28;20449;-72
2024/01/06 07:03:10;;;;;;;758.77;600.13;;;;;;;;;;5041210;28;20939;-72
2024/01/06 07:05:39;;;;;;;752.05;617.90;;;;;;;;;;5041633;28;20516;-72
2024/01/06 07:08:06;;;;;;;750.20;612.97;;;;;;;;;;5037242;28;20441;-72
2024/01/06 07:10:33;;;;;;;748.90;612.42;;;;;;;;;;5047072;28;20572;-72
2024/01/06 07:13:00;;;;;;;759.38;605.63;;;;;;;;;;5040792;28;20418;-72
2024/01/06 07:15:27;;;;;;;753.03;612.47;;;;;;;;;;5038705;28;20478;-72
2024/01/06 07:17:55;;;;;;;746.03;607.15;;;;;;;;;;5046035;28;20930;-72
2024/01/06 07:20:22;;;;;;;747.45;617.53;;;;;;;;;;5036838;28;20789;-72
2024/01/06 07:22:49;;;;;;;755.05;625.00;;;;;;;;;;5047483;28;20418;-72
2024/01/06 07:25:20;;;;;;;757.03;606.13;;;;;;;;;;5036359;28;20489;-72
2024/01/06 07:27:47;;;;;;;755.53;602.88;;;;;;;;;;5044155;28;20981;-72
2024/01/06 07:30:14;;;;;;;748.03;611.67;;;;;;;;;;5038029;28;20428;-73
2024/01/06 07:32:42;;;;;;;750.28;607.17;;;;;;;;;;5035014;28;20794;-71
2024/01/06 07:35:09;;;;;;;750.40;591.38;;;;;;;;;;5036199;28;21097;-72
2024/01/06 07:37:36;;;;;;;754.57;597.50;;;;;;;;;;5034971;28;20506;-72
2024/01/06 07:40:04;;;;;;;748.35;636.30;;;;;;;;;;5040720;28;20554;-71
2024/01/06 07:42:31;;;;;;;744.22;592.72;;;;;;;;;;5039021;28;20429;-72
2024/01/06 07:44:58;;;;;;;745.75;591.20;;;;;;;;;;5047314;28;20935;-71
2024/01/06 07:47:26;;;;;;;742.25;599.33;;;;;;;;;;5040822;28;20441;-72
2024/01/06 07:49:54;;;;;;;735.53;595.67;;;;;;;;;;5038298;28;20487;-72
2024/01/06 07:52:21;;;;;;;736.72;584.72;;;;;;;;;;5044625;28;20511;-72
2024/01/06 07:54:49;;;;;;;743.20;587.20;;;;;;;;;;5040581;28;20552;-72
2024/01/06 07:57:16;;;;;;;736.95;593.58;;;;;;;;;;5044132;28;20459;-72
2024/01/06 07:59:49;;;;;;;744.75;577.50;;;;;;;;;;5035257;28;20458;-72
2024/01/06 08:02:17;;;;;;;744.73;586.20;;;;;;;;;;5036691;28;25138;-72
2024/01/06 08:04:45;;;;;;;740.20;595.03;;;;;;;;;;5034831;28;20550;-72
2024/01/06 08:07:14;;;;;;;744.97;586.35;;;;;;;;;;5040499;28;20455;-71
2024/01/06 08:09:44;;;;;;;748.87;605.87;;;;;;;;;;5034885;28;20466;-72
2024/01/06 08:12:11;;;;;;;756.90;592.50;;;;;;;;;;5037244;28;21189;-73
2024/01/06 08:14:39;;;;;;;750.63;598.45;;;;;;;;;;5040587;28;21132;-73
2024/01/06 08:17:06;;;;;;;753.58;596.08;;;;;;;;;;5036252;28;20483;-71
2024/01/06 08:19:35;;;;;;;750.05;593.33;;;;;;;;;;5038762;28;20433;-72
2024/01/06 08:22:04;;;;;;;745.87;597.17;;;;;;;;;;5046207;28;20460;-72
2024/01/06 08:24:33;;;;;;;754.20;595.58;;;;;;;;;;5045347;28;20523;-72
2024/01/06 08:27:01;;;;;;;758.97;583.65;;;;;;;;;;5034850;28;20465;-71
2024/01/06 08:29:28;;;;;;;757.15;567.05;;;;;;;;;;5035671;28;20430;-74
2024/01/06 08:31:55;;;;;;;760.90;579.50;;;;;;;;;;5040484;28;20834;-72
2024/01/06 08:34:22;;;;;;;762.20;583.30;;;;;;;;;;5039636;28;20436;-72
2024/01/06 08:36:50;;;;;;;762.15;589.70;;;;;;;;;;5043885;28;20440;-73
2024/01/06 08:39:19;;;;;;;761.00;612.25;;;;;;;;;;5038009;28;20490;-72
2024/01/06 08:41:47;;;;;;;754.15;605.17;;;;;;;;;;5032863;28;20448;-72
2024/01/06 08:44:15;;;;;;;754.83;609.20;;;;;;;;;;5032766;28;20529;-72
2024/01/06 08:46:42;;;;;;;756.72;591.75;;;;;;;;;;5038512;28;20467;-72
2024/01/06 08:49:11;;;;;;;749.42;604.58;;;;;;;;;;5041855;28;20533;-72
2024/01/06 08:51:39;;;;;;;740.13;543.67;;;;;;;;;;5044067;28;20483;-72
2024/01/06 08:54:06;;;;;;;734.58;527.25;;;;;;;;;;5036538;28;20430;-72
2024/01/06 08:56:39;;;;;;;741.63;462.85;;;;;;;;;;5043184;28;20445;-73
2024/01/06 08:59:06;;;;;;;750.97;527.00;;;;;;;;;;5037212;28;20421;-72
2024/01/06 09:01:35;;;;;;;749.63;571.78;;;;;;;;;;5031393;28;20457;-72
2024/01/06 09:04:03;;;;;;;749.57;539.73;;;;;;;;;;5028659;28;20911;-72
2024/01/06 09:06:31;;;;;;;751.60;530.10;;;;;;;;;;5033176;28;20495;-72
2024/01/06 09:08:58;;;;;;;755.50;557.40;;;;;;;;;;5038300;28;20440;-72
2024/01/06 09:11:26;;;;;;;758.42;571.08;;;;;;;;;;5037570;28;21005;-73
2024/01/06 09:13:53;;;;;;;763.25;589.17;;;;;;;;;;5048542;28;20426;-72
2024/01/06 09:16:20;;;;;;;755.63;594.13;;;;;;;;;;5041292;28;20813;-72
2024/01/06 09:18:48;;;;;;;756.95;601.90;;;;;;;;;;5040871;28;20503;-73
2024/01/06 09:21:17;;;;;;;756.25;591.42;;;;;;;;;;5037603;28;20504;-73
2024/01/06 09:23:44;;;;;;;764.88;596.40;;;;;;;;;;5037968;28;20431;-72
2024/01/06 09:26:11;;;;;;;756.63;601.70;;;;;;;;;;5042363;28;20426;-73
2024/01/06 09:28:39;;;;;;;750.38;570.83;;;;;;;;;;5038803;28;20431;-72
2024/01/06 09:31:09;;;;;;;760.78;580.92;;;;;;;;;;5041956;28;20431;-72
2024/01/06 09:33:36;;;;;;;754.13;580.37;;;;;;;;;;5036428;28;20438;-72
2024/01/06 09:36:04;;;;;;;756.80;581.22;;;;;;;;;;5031990;28;20527;-72
2024/01/06 09:38:33;;;;;;;764.35;594.88;;;;;;;;;;5042714;28;20906;-72
2024/01/06 09:41:00;;;;;;;764.90;564.30;;;;;;;;;;5042742;28;21314;-72
2024/01/06 09:43:30;;;;;;;759.83;571.72;;;;;;;;;;5041149;28;20429;-72
2024/01/06 09:46:02;;;;;;;760.92;577.00;;;;;;;;;;5039044;28;20726;-72
2024/01/06 09:48:33;;;;;;;759.83;564.78;;;;;;;;;;5044417;28;20427;-72
2024/01/06 09:51:03;;;;;;;767.45;568.08;;;;;;;;;;5033762;28;20423;-72
2024/01/06 09:53:37;;;;;;;771.78;573.13;;;;;;;;;;5038968;28;20795;-72
2024/01/06 09:56:05;;;;;;;767.65;592.55;;;;;;;;;;5033854;28;20437;-72
2024/01/06 09:58:35;;;;;;;766.13;588.22;;;;;;;;;;5046135;28;20508;-73
2024/01/06 10:01:06;;;;;;;771.20;581.67;;;;;;;;;;5038704;28;20443;-72
2024/01/06 10:03:34;;;;;;;758.83;558.00;;;;;;;;;;5035333;28;20499;-72
2024/01/06 10:06:04;;;;;;;777.30;576.38;;;;;;;;;;5034662;28;20966;-72
2024/01/06 10:08:34;;;;;;;763.40;582.60;;;;;;;;;;5029074;28;20430;-72
2024/01/06 10:11:02;;;;;;;767.40;589.60;;;;;;;;;;5029182;28;20524;-72
2024/01/06 10:13:31;;;;;;;763.70;578.20;;;;;;;;;;5038417;28;20444;-72
2024/01/06 10:16:01;;;;;;;770.87;574.87;;;;;;;;;;5029845;28;20446;-72
2024/01/06 10:18:29;;;;;;;767.45;594.78;;;;;;;;;;5038212;28;20433;-73
2024/01/06 10:21:00;;;;;;;761.45;571.92;;;;;;;;;;5029727;28;20941;-75
2024/01/06 10:23:27;;;;;;;772.78;576.05;;;;;;;;;;5029784;28;20525;-73
2024/01/06 10:25:57;;;;;;;754.43;576.90;;;;;;;;;;5032612;28;21026;-72
2024/01/06 10:28:29;;;;;;;767.80;581.03;;;;;;;;;;5038858;28;20760;-72
2024/01/06 10:31:02;;;;;;;763.08;574.25;;;;;;;;;;5040080;28;20541;-72
2024/01/06 10:33:29;;;;;;;762.35;562.35;;;;;;;;;;5041561;28;20436;-72
2024/01/06 10:35:57;;;;;;;756.63;497.25;;;;;;;;;;5044034;28;20451;-73
2024/01/06 10:38:27;;;;;;;756.17;530.83;;;;;;;;;;5047380;28;20511;-72
2024/01/06 10:40:58;;;;;;;758.88;513.92;;;;;;;;;;5029919;28;20461;-72
2024/01/06 10:43:29;;;;;;;762.20;562.22;;;;;;;;;;5028741;28;20450;-72
2024/01/06 10:45:58;;;;;;;755.42;548.75;;;;;;;;;;5029616;28;20483;-72
2024/01/06 10:48:26;;;;;;;753.90;539.45;;;;;;;;;;5034372;28;20439;-72
2024/01/06 10:50:55;;;;;;;754.92;546.50;;;;;;;;;;5036824;28;20461;-72
2024/01/06 10:53:24;;;;;;;764.20;561.08;;;;;;;;;;5036189;28;20429;-72
2024/01/06 10:55:52;;;;;;;750.05;539.50;;;;;;;;;;5042135;28;20520;-72
2024/01/06 10:58:22;;;;;;;772.92;561.03;;;;;;;;;;5043514;28;20433;-72
2024/01/06 11:00:50;;;;;;;762.97;520.10;;;;;;;;;;5038104;28;20508;-72
2024/01/06 11:03:18;;;;;;;765.37;563.37;;;;;;;;;;5044231;28;20433;-72
2024/01/06 11:05:45;;;;;;;766.50;586.55;;;;;;;;;;5032548;28;20433;-72
2024/01/06 11:08:16;;;;;;;770.47;585.22;;;;;;;;;;5039441;28;20425;-72
2024/01/06 11:10:44;;;;;;;769.45;580.85;;;;;;;;;;5042062;28;20430;-72
2024/01/06 11:13:20;;;;;;;774.40;590.92;;;;;;;;;;5040760;28;20453;-70
2024/01/06 11:15:54;;;;;;;778.53;593.67;;;;;;;;;;5037416;28;20426;-71
2024/01/06 11:18:34;;;;;;;773.92;572.20;;;;;;;;;;5045148;28;20437;-71
2024/01/06 11:21:21;;;;;;;777.55;586.78;;;;;;;;;;5028667;28;20446;-71
2024/01/06 11:24:10;;;;;;;782.28;596.10;;;;;;;;;;5028821;28;20435;-71
2024/01/06 11:26:40;;;;;;;781.40;599.57;;;;;;;;;;5040748;28;20437;-71
2024/01/06 11:29:08;;;;;;;787.30;600.38;;;;;;;;;;5033021;28;20493;-71
2024/01/06 11:31:38;;;;;;;782.93;581.60;;;;;;;;;;5034214;28;20479;-71
2024/01/06 11:34:18;;;;;;;789.55;592.50;;;;;;;;;;5038345;28;20564;-71
2024/01/06 11:36:48;;;;;;;791.35;582.33;;;;;;;;;;5038164;28;20523;-71
2024/01/06 11:39:34;;;;;;;793.97;583.45;;;;;;;;;;5036690;28;20434;-71
2024/01/06 11:42:01;;;;;;;790.87;592.90;;;;;;;;;;5045405;28;20568;-71
2024/01/06 11:44:29;;;;;;;787.88;591.50;;;;;;;;;;5039696;28;20469;-71
2024/01/06 11:46:57;;;;;;;780.20;506.42;;;;;;;;;;5030217;28;20438;-71
2024/01/06 11:49:27;;;;;;;793.97;516.85;;;;;;;;;;5032420;28;20513;-71
2024/01/06 11:51:55;;;;;;;797.28;545.05;;;;;;;;;;5033414;28;20461;-71
2024/01/06 11:54:22;;;;;;;805.85;517.75;;;;;;;;;;5038897;28;20479;-71
2024/01/06 11:56:53;;;;;;;816.22;554.38;;;;;;;;;;5035868;28;20438;-71
2024/01/06 11:59:20;;;;;;;821.27;560.00;;;;;;;;;;5040344;28;20433;-71
2024/01/06 12:01:48;;;;;;;819.60;573.03;;;;;;;;;;5040717;28;20474;-71
2024/01/06 12:04:15;;;;;;;818.25;585.25;;;;;;;;;;5046199;28;20460;-71
2024/01/06 12:06:43;;;;;;;814.90;592.10;;;;;;;;;;5032693;28;20527;-71
2024/01/06 12:09:14;;;;;;;817.63;592.42;;;;;;;;;;5044009;28;20948;-71
2024/01/06 12:11:46;;;;;;;814.45;590.58;;;;;;;;;;5044152;28;20495;-71
2024/01/06 12:14:13;;;;;;;813.40;584.13;;;;;;;;;;5040140;28;20430;-71
2024/01/06 12:16:44;;;;;;;819.08;587.60;;;;;;;;;;5038448;28;20916;-71
2024/01/06 12:19:11;;;;;;;807.05;585.83;;;;;;;;;;5041776;28;20437;-71
2024/01/06 12:21:38;;;;;;;809.38;588.65;;;;;;;;;;5043676;28;20424;-71
2024/01/06 12:24:21;;;;;;;819.00;589.47;;;;;;;;;;5033138;28;20460;-71
2024/01/06 12:26:51;;;;;;;816.45;593.88;;;;;;;;;;5040965;28;20441;-71
2024/01/06 12:29:19;;;;;;;803.42;587.50;;;;;;;;;;5036883;28;21051;-71
2024/01/06 12:31:49;;;;;;;793.63;567.75;;;;;;;;;;5038908;28;20501;-71
2024/01/06 12:34:16;;;;;;;794.50;564.67;;;;;;;;;;5047953;28;20505;-71
2024/01/06 12:36:46;;;;;;;798.47;554.67;;;;;;;;;;5042550;28;20475;-71
2024/01/06 12:39:14;;;;;;;795.45;551.13;;;;;;;;;;5049094;28;20558;-71
2024/01/06 12:41:44;;;;;;;791.70;565.33;;;;;;;;;;5033683;28;20441;-71
2024/01/06 12:44:12;;;;;;;785.42;548.35;;;;;;;;;;5035027;28;20511;-71
2024/01/06 12:46:45;;;;;;;781.60;548.67;;;;;;;;;;5031643;28;20880;-71
2024/01/06 12:49:12;;;;;;;790.35;568.50;;;;;;;;;;5040303;28;20436;-71
2024/01/06 12:51:39;;;;;;;786.67;564.00;;;;;;;;;;5040472;28;20491;-71
2024/01/06 12:54:13;;;;;;;789.75;568.83;;;;;;;;;;5047066;28;21026;-71
2024/01/06 12:56:43;;;;;;;786.15;556.85;;;;;;;;;;5042285;28;20473;-71
2024/01/06 12:59:13;;;;;;;782.05;563.50;;;;;;;;;;5037657;28;20449;-71
2024/01/06 13:01:40;;;;;;;774.85;559.83;;;;;;;;;;5033553;28;21124;-71
2024/01/06 13:04:14;;;;;;;775.58;578.65;;;;;;;;;;5035371;28;20446;-70
2024/01/06 13:06:42;;;;;;;773.75;568.47;;;;;;;;;;5032932;28;20448;-71
2024/01/06 13:09:12;;;;;;;766.97;545.05;;;;;;;;;;5047766;28;20426;-71
2024/01/06 13:11:39;;;;;;;762.28;564.80;;;;;;;;;;5047297;28;20508;-71
2024/01/06 13:14:09;;;;;;;758.30;552.63;;;;;;;;;;5034869;28;20474;-71
2024/01/06 13:16:36;;;;;;;763.78;566.47;;;;;;;;;;5041354;28;20433;-71
2024/01/06 13:19:04;;;;;;;757.72;541.83;;;;;;;;;;5042054;28;20425;-71
2024/01/06 13:21:32;;;;;;;755.33;546.73;;;;;;;;;;5048724;28;20589;-71
2024/01/06 13:24:02;;;;;;;758.15;550.83;;;;;;;;;;5032507;28;20933;-72
2024/01/06 13:26:29;;;;;;;758.50;554.95;;;;;;;;;;5040498;28;21039;-71
2024/01/06 13:28:57;;;;;;;760.10;553.22;;;;;;;;;;5039651;28;20462;-70
2024/01/06 13:31:24;;;;;;;765.75;553.42;;;;;;;;;;5035133;28;20431;-70
2024/01/06 13:33:52;;;;;;;748.30;521.25;;;;;;;;;;5043510;28;20510;-71
2024/01/06 13:36:22;;;;;;;755.75;540.63;;;;;;;;;;5034585;28;20430;-70
2024/01/06 13:38:49;;;;;;;751.72;531.53;;;;;;;;;;5034569;28;20515;-72
2024/01/06 13:41:17;;;;;;;749.92;534.97;;;;;;;;;;5038683;28;20455;-72
2024/01/06 13:43:44;;;;;;;750.90;544.83;;;;;;;;;;5041181;28;20492;-71
2024/01/06 13:46:13;;;;;;;751.42;536.80;;;;;;;;;;5040709;28;20528;-70
2024/01/06 13:48:41;;;;;;;751.40;538.07;;;;;;;;;;5047220;28;20433;-70
2024/01/06 13:51:09;;;;;;;751.97;541.42;;;;;;;;;;5033027;28;20889;-70
2024/01/06 13:53:36;;;;;;;748.53;531.95;;;;;;;;;;5036984;28;20486;-70
2024/01/06 13:56:05;;;;;;;748.67;532.35;;;;;;;;;;5032302;28;20478;-71
2024/01/06 13:58:35;;;;;;;745.63;517.53;;;;;;;;;;5044696;28;20491;-71